Time;durP1;ratioP1;P1;durP2;ratioP2;P2;SDS_P1;SDS_P2;PMS_P1;PMS_P2;Temp;Humidity;BMP_temperature;BMP_pressure;BME280_temperature;BME280_humidity;BME280_pressure;Samples;Min_cycle;Max_cycle;Signal;HPM_P1;HPM_P2
2022/01/18 00:00:14;;;;;;;;;;;;;;;11.94;58.69;102665.25;5049742;28;6828;-70
2022/01/18 00:02:40;;;;;;;;;;;;;;;11.94;58.32;102663.59;5038789;28;7856;-71
2022/01/18 00:05:13;;;;;;;;;;;;;;;11.94;58.76;102663.59;5031164;28;7378;-71
2022/01/18 00:07:41;;;;;;;;;;;;;;;11.94;58.43;102662.66;5019914;28;7031;-71
2022/01/18 00:10:07;;;;;;;;;;;;;;;11.95;58.66;102660.22;5036832;28;7468;-71
2022/01/18 00:18:06;;;;;;;;;;;;;;;11.93;58.27;102666.03;5034418;28;7425;-70
2022/01/18 00:23:34;;;;;;;;;;;;;;;11.89;58.33;102669.13;5013357;28;6983;-71
2022/01/18 00:26:00;;;;;;;;;;;;;;;11.87;58.66;102661.31;5014655;28;7055;-71
2022/01/18 00:28:29;;;;;;;;;;;;;;;11.87;58.15;102670.66;4999238;28;7885;-71
2022/01/18 00:36:06;;;;;;;;;;;;;;;11.80;58.54;102683.06;5011524;28;6776;-71
2022/01/18 00:38:48;;;;;;;;;;;;;;;11.80;58.55;102680.47;5022184;28;7433;-71
2022/01/18 00:41:16;;;;;;;;;;;;;;;11.80;58.78;102685.63;5011528;28;7136;-71
2022/01/18 00:43:44;;;;;;;;;;;;;;;11.81;59.06;102689.06;5016182;28;6807;-71
2022/01/18 00:46:12;;;;;;;;;;;;;;;11.81;58.56;102678.78;5019464;28;7915;-71
2022/01/18 00:48:39;;;;;;;;;;;;;;;11.80;58.55;102680.47;5018299;28;7112;-70
2022/01/18 00:51:11;;;;;;;;;;;;;;;11.80;58.90;102685.63;5016441;28;6815;-70
2022/01/18 00:53:38;;;;;;;;;;;;;;;11.79;58.54;102680.34;5049055;28;7011;-70
2022/01/18 00:56:19;;;;;;;;;;;;;;;11.78;58.65;102691.41;5000766;28;6807;-70
2022/01/18 00:58:48;;;;;;;;;;;;;;;11.77;58.91;102690.50;5028386;28;6993;-71
2022/01/18 01:01:17;;;;;;;;;;;;;;;11.77;58.96;102689.59;5031445;28;6823;-71
2022/01/18 01:03:43;;;;;;;;;;;;;;;11.78;58.67;102693.97;5017698;28;6991;-71
2022/01/18 01:06:10;;;;;;;;;;;;;;;11.76;58.57;102695.53;5027563;28;6804;-70
2022/01/18 01:08:36;;;;;;;;;;;;;;;11.75;58.62;102701.44;5027541;28;7017;-70
2022/01/18 01:11:05;;;;;;;;;;;;;;;11.73;58.57;102698.75;4991883;28;7305;-70
2022/01/18 01:13:33;;;;;;;;;;;;;;;11.72;59.22;102699.53;5011878;28;6986;-70
2022/01/18 01:45:53;;;;;;;;;;;;;;;11.60;59.05;102712.25;5016216;28;6819;-71
2022/01/18 01:48:23;;;;;;;;;;;;;;;11.60;59.20;102711.38;5033295;28;8376;-70
2022/01/18 01:50:54;;;;;;;;;;;;;;;11.61;58.86;102708.03;5017780;28;7374;-71
2022/01/18 01:53:24;;;;;;;;;;;;;;;11.61;59.26;102708.03;5028950;28;7169;-70
2022/01/18 01:55:52;;;;;;;;;;;;;;;11.61;59.05;102715.75;5016917;28;7199;-70
2022/01/18 01:58:21;;;;;;;;;;;;;;;11.61;59.34;102715.75;4999785;28;8079;-71
2022/01/18 02:00:57;;;;;;;;;;;;;;;11.59;59.13;102704.41;5000216;28;7016;-71
2022/01/18 02:03:24;;;;;;;;;;;;;;;11.57;59.33;102704.31;5001536;28;7511;-71
2022/01/18 02:05:51;;;;;;;;;;;;;;;11.55;59.23;102697.25;5019150;28;6816;-71
2022/01/18 02:08:17;;;;;;;;;;;;;;;11.51;59.15;102691.88;5037440;28;6908;-71
2022/01/18 02:10:44;;;;;;;;;;;;;;;11.49;58.90;102697.66;5022959;28;7111;-71
2022/01/18 02:13:14;;;;;;;;;;;;;;;11.45;59.29;102685.34;5051337;28;6800;-71
2022/01/18 02:16:09;;;;;;;;;;;;;;;11.41;59.34;102689.34;5051135;28;7115;-71
2022/01/18 02:24:10;;;;;;;;;;;;;;;11.34;60.00;102685.34;5022783;28;6888;-71
2022/01/18 02:26:35;;;;;;;;;;;;;;;11.36;59.87;102688.97;5026024;28;7786;-70
2022/01/18 02:29:07;;;;;;;;;;;;;;;11.39;59.34;102691.78;5018749;28;7235;-70
2022/01/18 02:31:34;;;;;;;;;;;;;;;11.43;59.29;102692.94;5021184;28;6847;-70
2022/01/18 02:34:09;;;;;;;;;;;;;;;11.46;59.15;102695.72;5021773;28;6804;-70
2022/01/18 02:36:35;;;;;;;;;;;;;;;11.49;59.14;102685.72;5039331;28;7859;-70
2022/01/18 02:39:03;;;;;;;;;;;;;;;11.52;59.75;102685.97;5020724;28;7182;-70
2022/01/18 02:41:31;;;;;;;;;;;;;;;11.53;58.88;102685.19;5022874;28;7427;-70
2022/01/18 02:44:12;;;;;;;;;;;;;;;11.55;59.07;102689.56;5019919;28;7313;-70
2022/01/18 02:46:41;;;;;;;;;;;;;;;11.51;59.46;102691.88;5036842;28;7223;-71
2022/01/18 02:49:07;;;;;;;;;;;;;;;11.49;59.16;102695.09;5035815;28;6994;-71
2022/01/18 02:51:34;;;;;;;;;;;;;;;11.50;59.24;102702.03;5021889;28;6867;-71
2022/01/18 02:54:13;;;;;;;;;;;;;;;11.50;59.10;102699.44;5020981;28;7864;-71
2022/01/18 02:56:49;;;;;;;;;;;;;;;11.50;59.37;102689.19;5020291;28;6811;-71
2022/01/18 02:59:31;;;;;;;;;;;;;;;11.49;59.68;102688.31;5018823;28;7063;-71
2022/01/18 03:04:45;;;;;;;;;;;;;;;11.46;59.17;102684.59;5025652;28;6887;-71
2022/01/18 03:07:12;;;;;;;;;;;;;;;11.46;59.35;102682.03;5023937;28;6807;-71
2022/01/18 03:09:38;;;;;;;;;;;;;;;11.47;59.46;102683.81;5041049;28;7912;-71
2022/01/18 03:12:06;;;;;;;;;;;;;;;11.46;59.36;102682.03;5041874;28;6872;-71
2022/01/18 03:14:32;;;;;;;;;;;;;;;11.45;59.43;102685.34;5006494;28;7905;-70
2022/01/18 03:16:58;;;;;;;;;;;;;;;11.45;59.16;102686.25;5017959;28;7163;-70
2022/01/18 03:19:24;;;;;;;;;;;;;;;11.45;59.27;102687.94;5023970;28;7876;-70
2022/01/18 03:21:51;;;;;;;;;;;;;;;11.44;59.17;102676.75;5039878;28;6879;-70
2022/01/18 03:29:49;;;;;;;;;;;;;;;11.38;59.38;102695.13;5024306;28;6888;-71
2022/01/18 03:32:15;;;;;;;;;;;;;;;11.35;59.80;102699.09;5021536;28;6878;-70
2022/01/18 03:34:40;;;;;;;;;;;;;;;11.34;59.36;102708.47;5024506;28;7245;-71
2022/01/18 03:37:06;;;;;;;;;;;;;;;11.33;59.77;102710.94;5054680;28;6764;-71
2022/01/18 03:39:32;;;;;;;;;;;;;;;11.33;59.33;102706.66;5019240;28;6801;-71
2022/01/18 03:42:24;;;;;;;;;;;;;;;11.32;59.31;102709.13;5024010;28;6783;-71
2022/01/18 03:44:45;;;;;;;;;;;;;;;11.31;59.33;102707.34;5057054;28;6978;-71
2022/01/18 03:47:13;;;;;;;;;;;;;;;11.31;59.37;102707.34;5019083;28;7278;-71
2022/01/18 03:49:39;;;;;;;;;;;;;;;11.31;59.70;102710.78;5021871;28;6812;-71
2022/01/18 03:52:05;;;;;;;;;;;;;;;11.34;59.38;102705.91;5023462;28;6863;-71
2022/01/18 03:54:31;;;;;;;;;;;;;;;11.34;59.68;102707.59;5021927;28;6784;-71
2022/01/18 03:56:56;;;;;;;;;;;;;;;11.35;59.75;102701.66;5024169;28;6784;-71
2022/01/18 03:59:22;;;;;;;;;;;;;;;11.36;59.54;102706.03;5040688;28;6893;-71
2022/01/18 04:01:48;;;;;;;;;;;;;;;11.37;59.69;102711.31;4996252;28;7404;-71
2022/01/18 04:04:17;;;;;;;;;;;;;;;11.37;59.52;102710.38;5021406;28;7327;-71
2022/01/18 04:06:42;;;;;;;;;;;;;;;11.36;59.46;102709.50;5019873;28;7012;-71
2022/01/18 04:09:08;;;;;;;;;;;;;;;11.33;59.13;102710.94;5020172;28;6871;-71
2022/01/18 04:11:34;;;;;;;;;;;;;;;11.32;59.57;102715.16;5028498;28;6975;-71
2022/01/18 04:13:59;;;;;;;;;;;;;;;11.31;59.72;102717.63;5035543;28;6978;-71
2022/01/18 04:16:25;;;;;;;;;;;;;;;11.31;59.42;102715.03;5020310;28;6795;-71
2022/01/18 04:19:21;;;;;;;;;;;;;;;11.27;59.89;102718.13;5018972;28;7253;-71
2022/01/18 04:27:11;;;;;;;;;;;;;;;11.23;59.86;102720.44;5034022;28;6827;-71
2022/01/18 04:29:36;;;;;;;;;;;;;;;11.21;59.96;102716.84;5010453;28;6816;-71
2022/01/18 04:32:02;;;;;;;;;;;;;;;11.21;59.88;102723.66;5015726;28;6895;-71
2022/01/18 04:34:28;;;;;;;;;;;;;;;11.20;59.91;102714.16;5037438;28;7209;-71
2022/01/18 04:36:54;;;;;;;;;;;;;;;11.22;59.61;102713.50;5007336;28;6870;-71
2022/01/18 04:39:19;;;;;;;;;;;;;;;11.19;59.66;102720.94;5016005;28;6867;-71
2022/01/18 04:41:46;;;;;;;;;;;;;;;11.18;59.79;102711.44;5022447;28;6780;-71
2022/01/18 04:49:41;;;;;;;;;;;;;;;11.10;59.80;102707.34;5018420;28;8195;-71
2022/01/18 04:52:10;;;;;;;;;;;;;;;11.10;59.88;102707.34;5012675;28;6787;-71
2022/01/18 04:54:39;;;;;;;;;;;;;;;11.10;59.92;102712.47;5035557;28;7645;-71
2022/01/18 04:59:31;;;;;;;;;;;;;;;11.08;59.67;102714.03;5016896;28;6853;-71
2022/01/18 05:01:56;;;;;;;;;;;;;;;11.09;59.97;102726.09;5013350;28;6784;-71
2022/01/18 05:04:22;;;;;;;;;;;;;;;11.09;59.51;102724.44;5019765;28;6875;-71
2022/01/18 05:06:48;;;;;;;;;;;;;;;11.08;60.04;102727.75;5012564;28;6875;-71
2022/01/18 05:09:14;;;;;;;;;;;;;;;11.09;60.11;102731.22;5029552;28;7177;-71
2022/01/18 05:11:54;;;;;;;;;;;;;;;11.09;60.06;102736.34;5035332;28;6788;-72
2022/01/18 05:14:32;;;;;;;;;;;;;;;11.10;59.72;102730.44;5036640;28;7035;-72
2022/01/18 05:24:32;;;;;;;;;;;;;;;11.10;60.16;102727.88;5018454;28;6811;-71
2022/01/18 05:27:01;;;;;;;;;;;;;;;11.11;60.11;102727.13;5014528;28;6804;-71
2022/01/18 05:29:27;;;;;;;;;;;;;;;11.09;59.95;102726.09;5018243;28;6823;-71
2022/01/18 05:31:54;;;;;;;;;;;;;;;11.09;59.70;102726.09;5038272;28;7390;-71
2022/01/18 05:34:19;;;;;;;;;;;;;;;11.07;60.24;102723.41;5020617;28;6892;-71
2022/01/18 05:36:45;;;;;;;;;;;;;;;11.08;59.91;102729.41;5035979;28;7026;-71
2022/01/18 05:39:12;;;;;;;;;;;;;;;11.06;60.17;102730.97;5036483;28;7263;-71
2022/01/18 05:41:43;;;;;;;;;;;;;;;11.06;60.19;102733.53;5042082;28;7243;-71
2022/01/18 05:44:09;;;;;;;;;;;;;;;11.05;60.08;102731.75;5024954;28;7307;-71
2022/01/18 05:46:35;;;;;;;;;;;;;;;11.06;60.11;102736.09;5040691;28;6890;-71
2022/01/18 05:49:02;;;;;;;;;;;;;;;11.05;60.24;102732.63;5024279;28;7099;-71
2022/01/18 05:51:29;;;;;;;;;;;;;;;11.06;60.42;102742.16;5018612;28;7226;-71
2022/01/18 05:53:54;;;;;;;;;;;;;;;11.07;60.22;102737.91;5005735;28;6888;-71
2022/01/18 05:56:20;;;;;;;;;;;;;;;11.07;60.28;102743.03;5025215;28;6788;-71
2022/01/18 05:58:48;;;;;;;;;;;;;;;11.08;60.32;102747.38;5053260;28;7198;-71
2022/01/18 06:01:24;;;;;;;;;;;;;;;11.08;60.34;102747.38;5040984;28;6811;-71
2022/01/18 06:04:18;;;;;;;;;;;;;;;11.09;60.28;102754.31;5023976;28;6824;-72
2022/01/18 06:06:53;;;;;;;;;;;;;;;11.08;60.08;102758.56;5026048;28;7274;-71
2022/01/18 06:09:23;;;;;;;;;;;;;;;11.07;60.40;102758.44;5026124;28;6903;-71
2022/01/18 06:11:50;;;;;;;;;;;;;;;11.06;60.20;102757.53;5043334;28;8707;-69
2022/01/18 06:14:16;;;;;;;;;;;;;;;11.05;60.32;102763.41;5053392;28;7321;-69
2022/01/18 06:16:42;;;;;;;;;;;;;;;11.04;60.28;102765.88;5018827;28;6810;-69
2022/01/18 06:19:07;;;;;;;;;;;;;;;11.02;59.68;102762.28;5023018;28;8313;-69
2022/01/18 06:21:33;;;;;;;;;;;;;;;11.01;60.75;102763.03;5040868;28;7253;-69
2022/01/18 06:23:59;;;;;;;;;;;;;;;11.02;60.46;102759.72;5014846;28;6799;-69
2022/01/18 06:26:24;;;;;;;;;;;;;;;11.02;60.52;102762.28;5025409;28;6823;-69
2022/01/18 06:28:50;;;;;;;;;;;;;;;11.03;60.43;102762.41;5023161;28;6784;-69
2022/01/18 06:31:16;;;;;;;;;;;;;;;11.02;60.47;102754.59;5023761;28;7897;-69
2022/01/18 06:33:42;;;;;;;;;;;;;;;11.03;60.24;102758.94;5022188;28;6843;-69
2022/01/18 06:36:07;;;;;;;;;;;;;;;11.04;60.33;102758.19;5003916;28;6972;-69
2022/01/18 06:38:33;;;;;;;;;;;;;;;11.01;60.20;102755.34;5021553;28;6876;-70
2022/01/18 06:40:59;;;;;;;;;;;;;;;10.97;59.63;102762.78;5015361;28;6946;-70
2022/01/18 06:43:25;;;;;;;;;;;;;;;10.94;60.30;102765.09;5023710;28;7936;-70
2022/01/18 06:45:50;;;;;;;;;;;;;;;10.91;60.25;102763.94;5056142;28;6799;-70
2022/01/18 06:48:16;;;;;;;;;;;;;;;10.90;60.57;102759.59;5012168;28;7876;-70
2022/01/18 06:50:42;;;;;;;;;;;;;;;10.85;60.40;102761.75;5012621;28;6803;-70
2022/01/18 06:53:07;;;;;;;;;;;;;;;10.83;60.14;102758.16;5022372;28;6870;-70
2022/01/18 06:55:33;;;;;;;;;;;;;;;10.82;60.47;102757.25;5039157;28;6890;-70
2022/01/18 06:57:59;;;;;;;;;;;;;;;10.83;60.56;102758.16;5038332;28;6791;-70
2022/01/18 07:00:25;;;;;;;;;;;;;;;10.82;60.67;102746.13;5019992;28;6800;-70
2022/01/18 07:02:50;;;;;;;;;;;;;;;10.81;60.53;102740.06;5040984;28;6847;-70
2022/01/18 07:05:16;;;;;;;;;;;;;;;10.81;60.85;102739.16;5020996;28;6939;-70
2022/01/18 07:07:47;;;;;;;;;;;;;;;10.78;60.52;102744.03;5038271;28;6835;-70
2022/01/18 07:10:14;;;;;;;;;;;;;;;10.74;60.36;102732.63;5041067;28;6812;-70
2022/01/18 07:12:39;;;;;;;;;;;;;;;10.70;60.69;102735.72;5006088;28;7141;-70
2022/01/18 07:15:07;;;;;;;;;;;;;;;10.65;60.35;102737.88;5024103;28;6839;-70
2022/01/18 07:17:40;;;;;;;;;;;;;;;10.62;60.71;102744.41;5019911;28;6800;-70
2022/01/18 07:20:07;;;;;;;;;;;;;;;10.59;60.83;102744.16;5023306;28;6978;-70
2022/01/18 07:22:34;;;;;;;;;;;;;;;10.56;60.85;102744.78;5024378;28;6863;-70
2022/01/18 07:25:02;;;;;;;;;;;;;;;10.54;60.70;102749.78;5023092;28;7233;-70
2022/01/18 07:27:27;;;;;;;;;;;;;;;10.56;60.45;102742.22;5023977;28;7068;-70
2022/01/18 07:29:53;;;;;;;;;;;;;;;10.54;60.70;102746.31;5037327;28;6784;-70
2022/01/18 07:32:20;;;;;;;;;;;;;;;10.51;61.31;102749.53;5040864;28;6827;-69
2022/01/18 07:34:52;;;;;;;;;;;;;;;10.48;61.08;102744.13;5042092;28;6923;-69
2022/01/18 07:37:21;;;;;;;;;;;;;;;10.48;61.26;102751.84;5038379;28;6851;-69
2022/01/18 07:39:50;;;;;;;;;;;;;;;10.48;61.26;102750.91;5019860;28;6811;-71
2022/01/18 07:42:17;;;;;;;;;;;;;;;10.47;61.10;102754.25;5021486;28;6804;-72
2022/01/18 07:44:43;;;;;;;;;;;;;;;10.45;61.97;102753.22;5038446;28;6815;-72
2022/01/18 07:47:09;;;;;;;;;;;;;;;10.44;61.62;102764.25;5021380;28;6815;-72
2022/01/18 07:49:35;;;;;;;;;;;;;;;10.42;61.68;102749.59;5019979;28;6882;-72
2022/01/18 07:52:00;;;;;;;;;;;;;;;10.45;61.87;102758.34;5037793;28;6903;-72
2022/01/18 07:54:26;;;;;;;;;;;;;;;10.46;61.83;102766.16;5032985;28;7302;-72
2022/01/18 07:56:52;;;;;;;;;;;;;;;10.50;61.99;102763.09;5022558;28;7125;-72
2022/01/18 07:59:18;;;;;;;;;;;;;;;10.54;61.77;102769.41;5022259;28;6799;-72
2022/01/18 08:01:43;;;;;;;;;;;;;;;10.58;61.62;102776.59;5040027;28;6995;-72
2022/01/18 08:04:09;;;;;;;;;;;;;;;10.60;61.65;102777.59;5021239;28;6856;-72
2022/01/18 08:06:36;;;;;;;;;;;;;;;10.63;61.43;102780.47;4999007;28;6831;-72
2022/01/18 08:09:02;;;;;;;;;;;;;;;10.66;61.93;102780.72;5021463;28;7022;-72
2022/01/18 08:11:27;;;;;;;;;;;;;;;10.70;61.81;102782.75;5020795;28;6803;-70
2022/01/18 08:13:53;;;;;;;;;;;;;;;10.73;62.21;102773.56;5022826;28;7112;-69
2022/01/18 08:16:33;;;;;;;;;;;;;;;10.77;61.51;102776.50;5021468;28;6811;-69
2022/01/18 08:19:03;;;;;;;;;;;;;;;10.82;61.72;102779.47;5039710;28;7888;-69
2022/01/18 08:21:29;;;;;;;;;;;;;;;10.84;61.39;102775.34;5022155;28;6807;-69
2022/01/18 08:23:54;;;;;;;;;;;;;;;10.89;62.04;102778.31;4999570;28;6887;-69
2022/01/18 08:26:21;;;;;;;;;;;;;;;10.92;61.21;102776.91;5040242;28;7015;-69
2022/01/18 08:28:47;;;;;;;;;;;;;;;10.94;61.71;102785.63;5050280;28;7197;-69
2022/01/18 08:31:13;;;;;;;;;;;;;;;10.97;61.60;102770.47;5022564;28;6807;-69
2022/01/18 08:33:39;;;;;;;;;;;;;;;11.02;61.72;102772.56;5020266;28;7050;-69
2022/01/18 08:36:06;;;;;;;;;;;;;;;11.07;61.75;102777.31;5037538;28;6886;-69
2022/01/18 08:38:33;;;;;;;;;;;;;;;11.15;61.76;102777.94;5021142;28;7007;-69
2022/01/18 08:41:01;;;;;;;;;;;;;;;11.23;61.49;102781.13;5020848;28;6807;-70
2022/01/18 08:43:31;;;;;;;;;;;;;;;11.29;61.76;102776.53;5053349;28;6972;-69
2022/01/18 08:46:01;;;;;;;;;;;;;;;11.36;61.88;102783.97;5015861;28;7298;-70
2022/01/18 08:48:27;;;;;;;;;;;;;;;11.43;62.00;102781.88;5036328;28;6819;-69
2022/01/18 08:50:53;;;;;;;;;;;;;;;11.51;61.94;102783.44;5020495;28;6864;-70
2022/01/18 08:53:19;;;;;;;;;;;;;;;11.60;61.50;102783.31;5013210;28;6837;-70
2022/01/18 08:55:45;;;;;;;;;;;;;;;11.65;61.02;102792.25;5019531;28;6862;-69
2022/01/18 08:58:11;;;;;;;;;;;;;;;11.71;61.29;102777.38;5020264;28;7493;-69
2022/01/18 09:00:37;;;;;;;;;;;;;;;11.73;60.86;102786.09;5021151;28;6791;-69
2022/01/18 09:03:04;;;;;;;;;;;;;;;11.76;61.06;102780.31;5014551;28;7059;-69
2022/01/18 09:05:30;;;;;;;;;;;;;;;11.76;60.69;102783.75;5021296;28;6827;-69
2022/01/18 09:08:01;;;;;;;;;;;;;;;11.78;60.59;102784.81;5039990;28;6803;-69
2022/01/18 09:10:26;;;;;;;;;;;;;;;11.81;61.04;102785.03;5008885;28;6985;-69
2022/01/18 09:12:52;;;;;;;;;;;;;;;11.84;61.14;102783.50;5037497;28;6783;-69
2022/01/18 09:15:18;;;;;;;;;;;;;;;11.87;61.00;102781.16;5022372;28;7225;-69
2022/01/18 09:17:44;;;;;;;;;;;;;;;11.89;60.88;102787.34;5019319;28;6989;-69
2022/01/18 09:20:13;;;;;;;;;;;;;;;11.90;60.89;102789.13;5011286;28;6998;-69
2022/01/18 09:22:44;;;;;;;;;;;;;;;11.90;60.21;102795.16;5004537;28;7247;-69
2022/01/18 09:25:20;;;;;;;;;;;;;;;11.91;60.11;102801.22;5038404;28;7281;-69
2022/01/18 09:27:48;;;;;;;;;;;;;;;11.92;60.87;102793.59;5019831;28;7892;-69
2022/01/18 09:30:15;;;;;;;;;;;;;;;11.97;60.33;102799.13;5021495;28;7412;-69
2022/01/18 09:32:43;;;;;;;;;;;;;;;12.03;60.32;102796.22;4993469;28;6846;-70
2022/01/18 09:35:10;;;;;;;;;;;;;;;12.06;60.41;102792.19;5021383;28;6796;-69
2022/01/18 09:37:36;;;;;;;;;;;;;;;12.11;60.25;102794.25;5023396;28;7050;-69
2022/01/18 09:40:03;;;;;;;;;;;;;;;12.11;60.48;102789.97;5021494;28;6840;-69
2022/01/18 09:42:34;;;;;;;;;;;;;;;12.16;60.58;102798.06;5020082;28;6795;-69
2022/01/18 09:45:03;;;;;;;;;;;;;;;12.19;60.61;102794.06;5041456;28;6820;-69
2022/01/18 09:47:29;;;;;;;;;;;;;;;12.24;60.52;102798.69;5021550;28;6816;-69
2022/01/18 09:49:58;;;;;;;;;;;;;;;12.25;59.74;102798.78;5038276;28;6791;-69
2022/01/18 09:52:24;;;;;;;;;;;;;;;12.27;59.88;102806.63;4995260;28;6867;-69
2022/01/18 09:54:50;;;;;;;;;;;;;;;12.27;60.27;102810.13;5022068;28;7199;-69
2022/01/18 09:57:15;;;;;;;;;;;;;;;12.27;59.49;102812.69;5010556;28;8178;-69
2022/01/18 09:59:42;;;;;;;;;;;;;;;12.28;59.84;102811.00;5037691;28;6826;-69
2022/01/18 10:02:10;;;;;;;;;;;;;;;12.30;60.58;102812.94;5038910;28;6875;-69
2022/01/18 10:04:43;;;;;;;;;;;;;;;12.35;60.21;102821.88;5021786;28;6911;-69
2022/01/18 10:07:10;;;;;;;;;;;;;;;12.40;60.60;102817.09;5021083;28;6803;-69
2022/01/18 10:09:37;;;;;;;;;;;;;;;12.45;60.05;102817.47;5018065;28;6885;-69
2022/01/18 10:12:16;;;;;;;;;;;;;;;12.51;59.66;102817.97;5009995;28;6892;-69
2022/01/18 10:14:58;;;;;;;;;;;;;;;12.60;59.79;102817.78;5010626;28;7133;-70
2022/01/18 10:17:40;;;;;;;;;;;;;;;12.68;59.38;102811.56;5021961;28;7571;-70
2022/01/18 10:20:14;;;;;;;;;;;;;;;12.73;59.85;102810.25;5037027;28;6887;-70
2022/01/18 10:22:42;;;;;;;;;;;;;;;12.78;60.08;102805.47;5022816;28;6815;-70
2022/01/18 10:25:19;;;;;;;;;;;;;;;12.81;59.80;102812.53;5018288;28;7222;-69
2022/01/18 10:27:51;;;;;;;;;;;;;;;12.84;58.94;102808.50;5041369;28;6799;-69
2022/01/18 10:30:25;;;;;;;;;;;;;;;12.86;59.26;102816.34;5014858;28;6891;-69
2022/01/18 10:33:18;;;;;;;;;;;;;;;12.80;59.23;102810.75;5031660;28;6824;-69
2022/01/18 10:36:04;;;;;;;;;;;;;;;12.73;58.59;102810.25;5020747;28;6815;-69
2022/01/18 10:38:31;;;;;;;;;;;;;;;12.73;58.36;102796.47;5010704;28;6804;-69
2022/01/18 10:41:30;;;;;;;;;;;;;;;12.77;59.27;102801.09;5038629;28;6950;-69
2022/01/18 10:44:09;;;;;;;;;;;;;;;12.79;58.41;102791.81;5023785;28;6941;-70
2022/01/18 10:46:48;;;;;;;;;;;;;;;12.81;59.46;102792.84;5018904;28;7148;-70
2022/01/18 10:49:47;;;;;;;;;;;;;;;12.83;59.16;102791.25;5023474;28;8255;-69
2022/01/18 10:52:24;;;;;;;;;;;;;;;12.83;59.01;102790.38;5010038;28;7024;-69
2022/01/18 10:54:58;;;;;;;;;;;;;;;12.86;58.35;102791.53;4999274;28;7269;-69
2022/01/18 10:57:28;;;;;;;;;;;;;;;12.91;58.08;102787.59;5056118;28;7204;-69
2022/01/18 11:00:00;;;;;;;;;;;;;;;13.00;58.60;102781.38;5041790;28;6816;-69
2022/01/18 11:02:27;;;;;;;;;;;;;;;13.11;58.72;102783.09;5040692;28;6803;-69
2022/01/18 11:04:57;;;;;;;;;;;;;;;13.31;58.12;102782.03;5022992;28;6896;-69
2022/01/18 11:07:26;;;;;;;;;;;;;;;13.47;57.80;102784.09;5002535;28;6888;-69
2022/01/18 11:10:00;;;;;;;;;;;;;;;13.64;57.97;102784.44;5039486;28;7172;-70
2022/01/18 11:12:29;;;;;;;;;;;;;;;13.75;57.88;102777.47;5025423;28;7157;-70
2022/01/18 11:15:05;;;;;;;;;;;;;;;13.85;57.13;102767.06;5040379;28;7090;-69
2022/01/18 11:17:39;;;;;;;;;;;;;;;13.97;57.23;102766.19;5007609;28;6872;-69
2022/01/18 11:20:06;;;;;;;;;;;;;;;14.14;56.29;102767.38;5038469;28;6815;-69
2022/01/18 11:22:33;;;;;;;;;;;;;;;14.24;55.71;102761.16;5000901;28;7093;-69
2022/01/18 11:25:03;;;;;;;;;;;;;;;14.27;55.62;102764.88;5055621;28;6883;-69
2022/01/18 11:27:34;;;;;;;;;;;;;;;14.23;55.30;102755.13;5038824;28;6871;-69
2022/01/18 11:30:00;;;;;;;;;;;;;;;14.16;54.62;102751.22;5039176;28;6800;-69
2022/01/18 11:32:28;;;;;;;;;;;;;;;14.14;55.16;102745.03;5006203;28;7174;-69
2022/01/18 11:35:27;;;;;;;;;;;;;;;14.30;55.48;102736.72;5020988;28;6807;-69
2022/01/18 11:38:48;;;;;;;;;;;;;;;14.79;54.94;102738.34;5032648;28;7076;-70
2022/01/18 11:41:34;;;;;;;;;;;;;;;15.11;53.19;102730.97;4989323;28;6975;-70
2022/01/18 11:44:16;;;;;;;;;;;;;;;15.12;53.16;102733.66;5040519;28;6824;-70
2022/01/18 11:46:52;;;;;;;;;;;;;;;14.96;53.01;102744.66;5017341;28;7175;-70
2022/01/18 11:49:23;;;;;;;;;;;;;;;14.69;52.97;102736.78;5023924;28;7242;-69
2022/01/18 11:51:56;;;;;;;;;;;;;;;14.38;52.78;102733.75;5038975;28;6816;-69
2022/01/18 11:57:23;;;;;;;;;;;;;;;13.91;54.70;102738.28;5039072;28;7136;-69
2022/01/18 11:59:57;;;;;;;;;;;;;;;14.05;54.39;102733.19;5040488;28;7196;-69
2022/01/18 12:02:37;;;;;;;;;;;;;;;14.41;53.81;102734.88;5040568;28;6807;-69
2022/01/18 12:05:18;;;;;;;;;;;;;;;14.68;53.43;102724.66;5053854;28;7178;-70
2022/01/18 12:07:47;;;;;;;;;;;;;;;14.82;52.36;102723.06;5020502;28;7039;-70
2022/01/18 12:10:21;;;;;;;;;;;;;;;14.88;51.95;102726.88;5036411;28;7152;-69
2022/01/18 12:12:54;;;;;;;;;;;;;;;14.98;52.99;102724.09;5034007;28;6803;-69
2022/01/18 12:15:19;;;;;;;;;;;;;;;15.48;52.10;102722.19;5023250;28;6862;-69
2022/01/18 12:17:50;;;;;;;;;;;;;;;16.31;51.13;102710.09;5021507;28;7086;-69
2022/01/18 12:20:35;;;;;;;;;;;;;;;17.08;49.27;102713.84;5022143;28;7853;-69
2022/01/18 12:23:09;;;;;;;;;;;;;;;17.05;48.80;102709.38;5012775;28;6831;-69
2022/01/18 12:25:57;;;;;;;;;;;;;;;16.68;49.21;102708.88;5034965;28;6807;-70
2022/01/18 12:34:46;;;;;;;;;;;;;;;15.23;50.80;102715.38;5032054;28;6899;-69
2022/01/18 12:37:13;;;;;;;;;;;;;;;14.98;50.87;102713.78;5021596;28;6996;-69
2022/01/18 12:39:51;;;;;;;;;;;;;;;14.81;51.33;102710.94;5040634;28;7180;-69
2022/01/18 12:45:30;;;;;;;;;;;;;;;14.58;51.21;102699.94;5018900;28;7027;-69
2022/01/18 12:48:04;;;;;;;;;;;;;;;14.46;51.78;102690.47;5032118;28;6831;-69
2022/01/18 12:50:39;;;;;;;;;;;;;;;14.35;51.68;102698.34;5038558;28;7238;-69
2022/01/18 12:53:23;;;;;;;;;;;;;;;14.22;52.13;102693.13;5022651;28;6819;-69
2022/01/18 12:55:55;;;;;;;;;;;;;;;14.15;52.87;102690.13;5016320;28;6808;-69
2022/01/18 12:58:34;;;;;;;;;;;;;;;14.13;52.18;102688.22;5010284;28;7228;-69
2022/01/18 13:01:12;;;;;;;;;;;;;;;14.08;52.69;102685.31;5039041;28;6831;-70
2022/01/18 13:03:45;;;;;;;;;;;;;;;13.98;52.31;102682.88;5037403;28;6834;-69
2022/01/18 13:06:21;;;;;;;;;;;;;;;13.80;51.81;102680.78;5016615;28;6824;-69
2022/01/18 13:08:48;;;;;;;;;;;;;;;13.66;52.88;102679.78;5014753;28;7309;-70
2022/01/18 13:11:21;;;;;;;;;;;;;;;13.56;52.66;102682.50;5020346;28;7030;-70
2022/01/18 13:13:59;;;;;;;;;;;;;;;13.47;52.96;102674.97;5020977;28;7258;-69
2022/01/18 13:27:40;;;;;;;;;;;;;;;13.37;54.20;102652.78;5033042;28;6959;-69
2022/01/18 13:30:24;;;;;;;;;;;;;;;13.39;53.50;102652.91;5021204;28;6827;-70
2022/01/18 13:32:53;;;;;;;;;;;;;;;13.44;53.57;102647.34;5030676;28;6839;-70
2022/01/18 13:35:26;;;;;;;;;;;;;;;13.51;53.37;102650.34;5039445;28;7150;-70
2022/01/18 13:37:57;;;;;;;;;;;;;;;13.53;53.97;102651.38;5054089;28;6911;-70
2022/01/18 13:40:23;;;;;;;;;;;;;;;13.46;52.75;102642.28;5014774;28;6985;-70
2022/01/18 13:43:01;;;;;;;;;;;;;;;13.37;52.91;102639.00;5017525;28;7116;-69
2022/01/18 13:45:30;;;;;;;;;;;;;;;13.21;52.66;102635.34;5006910;28;6911;-69
2022/01/18 13:47:55;;;;;;;;;;;;;;;13.06;53.01;102628.25;5031863;28;7266;-70
2022/01/18 13:50:56;;;;;;;;;;;;;;;12.91;53.38;102635.75;5022279;28;6890;-70
2022/01/18 13:53:28;;;;;;;;;;;;;;;12.77;54.02;102636.41;5021098;28;7034;-69
2022/01/18 13:56:07;;;;;;;;;;;;;;;12.66;53.68;102632.16;5021071;28;7140;-69
2022/01/18 13:58:43;;;;;;;;;;;;;;;12.56;53.88;102634.03;5017846;28;7053;-69
2022/01/18 14:01:26;;;;;;;;;;;;;;;12.46;53.55;102636.69;5022441;28;6824;-69
2022/01/18 14:04:00;;;;;;;;;;;;;;;12.38;54.41;102630.06;5043574;28;7090;-69
2022/01/18 14:06:40;;;;;;;;;;;;;;;12.32;54.04;102626.22;5026633;28;6816;-69
2022/01/18 14:09:09;;;;;;;;;;;;;;;12.28;54.72;102634.50;5023679;28;6908;-69
2022/01/18 14:11:37;;;;;;;;;;;;;;;12.25;54.69;102636.81;5043185;28;6831;-69
2022/01/18 14:14:21;;;;;;;;;;;;;;;12.21;54.99;102640.81;5024316;28;6875;-69
2022/01/18 14:16:54;;;;;;;;;;;;;;;12.15;54.98;102624.03;5043405;28;6823;-70
2022/01/18 14:19:42;;;;;;;;;;;;;;;12.14;54.68;102627.38;5043083;28;6819;-70
2022/01/18 14:22:21;;;;;;;;;;;;;;;12.08;55.38;102621.00;5035339;28;6835;-69
2022/01/18 14:24:59;;;;;;;;;;;;;;;12.05;54.80;102625.88;5021692;28;7260;-69
2022/01/18 14:27:28;;;;;;;;;;;;;;;12.02;55.47;102624.72;5023621;28;6919;-69
2022/01/18 14:29:57;;;;;;;;;;;;;;;11.99;55.35;102620.25;5041169;28;8091;-69
2022/01/18 14:32:41;;;;;;;;;;;;;;;11.95;55.62;102616.53;5024191;28;7001;-69
2022/01/18 14:35:13;;;;;;;;;;;;;;;11.93;55.51;102619.75;5022678;28;6903;-72
2022/01/18 14:38:03;;;;;;;;;;;;;;;11.90;55.83;102617.84;4997850;28;7009;-69
2022/01/18 14:40:39;;;;;;;;;;;;;;;11.87;55.63;102614.13;5030257;28;7931;-69
2022/01/18 14:43:25;;;;;;;;;;;;;;;11.84;55.37;102609.69;5020787;28;7232;-69
2022/01/18 14:46:05;;;;;;;;;;;;;;;11.83;55.99;102606.97;5022088;28;6823;-70